Main page
METAR-TAF:

METAR-TAF

Airports :

Hawarden Airport

Hawarden, Wales

latitude: 53-10N, longitude: 002-59W, elevation: 10 m

Current weather observation

The report was made 26 minutes ago, at 13:20 UTC
Wind 21 kt from the South/Southeast
Temperature 19°C
Humidity 40%
Pressure 1007 hPa
Visibility 10 km or more
no clouds below 1500 m and no cumulonimbus

METAR: EGNR 051320Z 15021KT CAVOK 19/05 Q1007

Time: 14:46 (13:46 UTC)

Forecast

The report was made 2 hours and 23 minutes ago, at 11:23 UTC
Forecast valid from 05 at 12 UTC to 05 at 18 UTC
Wind 10 kt from the Southeast
Visibility 10 km or more
no clouds below 1500 m and no cumulonimbus
Becoming
from 05 at 12 UTC to 05 at 15 UTC
Wind 15 kt from the South/Southeast with gusts up to 25 kt

TAF: EGNR 051123Z 0512/0518 14010KT CAVOK BECMG 0512/0515 16015G25KT

Weather observations and forecasts of more than 4000 airports (METAR and TAF reports).

The available stations are represented by yellow and red dots on the map.

Hover mouse over dot to see the name of the station.

Then click to see weather observations and forecasts.

To change the map : click on the green buttons with a black cross to zoom in, on the green button with a dash to zoom out, or on the green arrows for adjacent maps.


METAR-TAF: